< < Back
Terminal Aerodrome Forecast


Current Version              Previous Versions:   1  2  3  4  5  6  7  8  9  

Terminal Aerodrome Forecast

488
FTUS42 KGSP 021228 AAA
TAFAND
TAF AMD
KAND 021228Z 0212/0312 00000KT P6SM SCT100 BKN250
     FM021500 27003KT P6SM FEW040
     FM022100 16005KT P6SM SCT060
     FM030600 04003KT P6SM SCT070=

Latest METAR

916
SAUS70 KWBC 021900
MTRAND
METAR KAND 021856Z AUTO 19005KT 10SM SCT046 31/19 A3006 RMK AO2 SLP169
T03110194


USA.gov is the U.S. government's official web portal to all federal, state and local government web resources and services.